Airfield :
LOGIN :

Register | Disclaimer

   EN    FR    IT 

 










Legend :    VFR   Marginal VFR   IFR   Intensive IFR   Very Intensive IFR
Visi :
Ceiling :
>= 8 km
>= 3000ft
5 to 8 km
1000 to 3000 ft
1500m to 5 km
500 to 1000 ft
800 to 1500m
200 to 500 ft
< 800m
< 200 ft
Symbols :   Thunderstorms  Fog  Heavy snow  Heavy precipitations  Wind > 20 kt
SIGMETs :     Misc.  Thunderstorms  Icing  Turbulence  Mountain Waves  Volcanic Ashes






- Airport Elevation : 341 ft


EPMO - Modlin

CURRENT METAR :
  • 062100Z 21009KT 8000 NSC 00/M04 Q1009

EXPIRED METARs :
  • 062030Z 20009KT 160V230 8000 SCT034 01/M04 Q1009
  • 062000Z 20008KT 8000 SCT021 01/M04 Q1010
  • 061930Z 21008KT 8000 FEW021 01/M04 Q1010
  • 061900Z 29009KT 8000 NSC 01/M04 Q1010
  • 061830Z 21010KT 9000 NSC 01/M04 Q1010

TAF TAF EPMO
Valid from the 06 at 18:00 until the 07 at 18:00 UTC


061730Z 0618/0718 21010KT 7000 NSC
PROB40 0702/0708 4000 BR
BECMG 0709/0711 BKN014
TEMPO 0709/0718 4500 -RA BR
PROB30
TEMPO 0709/0711 2000 RASN BKN005 OVC013
BECMG 0714/0716 27012KT



MET'MAP, your aeronautical weather chart ! - Copyright ORBIFLY December 2007 - Disclaimer

ORBIFLY MET'MAP TEAM :

Programming & Development : Alexandra Zaïnal
Concept & original design : Baudouin d'Aumeries
Assistance for programming : Marc-Olivier Méhu
Technical & hardware support : Manuel Goepfert

Contact : metmap@orbifly.com




SOURCES & CREDITS :

   NOAA